sensor_id;sensor_type;location;lat;lon;timestamp;pressure;altitude;pressure_sealevel;temperature;humidity
12791;BME280;6459;42.678;23.310;2022-08-16T00:01:53;53985.63;;;-144.00;63.97
12791;BME280;6459;42.678;23.310;2022-08-16T00:04:26;53985.63;;;-144.00;63.85
12791;BME280;6459;42.678;23.310;2022-08-16T00:06:54;54001.56;;;-144.00;63.80
12791;BME280;6459;42.678;23.310;2022-08-16T00:09:23;53997.56;;;-144.00;63.97
12791;BME280;6459;42.678;23.310;2022-08-16T00:11:54;53955.72;;;-144.00;64.12
12791;BME280;6459;42.678;23.310;2022-08-16T00:14:26;53969.69;;;-144.00;64.06
12791;BME280;6459;42.678;23.310;2022-08-16T00:16:57;53957.72;;;-144.00;63.95
12791;BME280;6459;42.678;23.310;2022-08-16T00:19:53;53975.66;;;-144.00;63.80
12791;BME280;6459;42.678;23.310;2022-08-16T00:22:22;53975.66;;;-144.00;63.64
12791;BME280;6459;42.678;23.310;2022-08-16T00:24:54;53993.59;;;-144.00;63.56
12791;BME280;6459;42.678;23.310;2022-08-16T00:27:25;54003.53;;;-144.00;63.33
12791;BME280;6459;42.678;23.310;2022-08-16T00:29:56;53985.63;;;-144.00;63.26
12791;BME280;6459;42.678;23.310;2022-08-16T00:32:35;54005.53;;;-144.00;63.48
12791;BME280;6459;42.678;23.310;2022-08-16T00:35:04;54007.53;;;-144.00;63.48
12791;BME280;6459;42.678;23.310;2022-08-16T00:37:42;54011.50;;;-144.00;63.77
12791;BME280;6459;42.678;23.310;2022-08-16T00:40:26;53981.63;;;-144.00;64.15
12791;BME280;6459;42.678;23.310;2022-08-16T00:43:04;53987.59;;;-144.00;64.24
12791;BME280;6459;42.678;23.310;2022-08-16T00:45:51;53993.59;;;-144.00;64.30
12791;BME280;6459;42.678;23.310;2022-08-16T00:48:27;54005.53;;;-144.00;63.85
12791;BME280;6459;42.678;23.310;2022-08-16T00:51:11;53995.56;;;-144.00;64.19
12791;BME280;6459;42.678;23.310;2022-08-16T00:53:43;53999.56;;;-144.00;64.46
12791;BME280;6459;42.678;23.310;2022-08-16T00:56:18;53995.56;;;-144.00;64.90
12791;BME280;6459;42.678;23.310;2022-08-16T00:59:10;54007.53;;;-144.00;65.31
12791;BME280;6459;42.678;23.310;2022-08-16T01:01:42;53989.59;;;-144.00;65.32
12791;BME280;6459;42.678;23.310;2022-08-16T01:04:12;54001.56;;;-144.00;64.99
12791;BME280;6459;42.678;23.310;2022-08-16T01:06:56;54005.53;;;-144.00;65.35
12791;BME280;6459;42.678;23.310;2022-08-16T01:09:29;54023.47;;;-144.00;65.23
12791;BME280;6459;42.678;23.310;2022-08-16T01:12:01;53981.63;;;-144.00;65.24
12791;BME280;6459;42.678;23.310;2022-08-16T01:14:40;54021.47;;;-144.00;65.56
12791;BME280;6459;42.678;23.310;2022-08-16T01:17:14;54001.56;;;-144.00;65.65
12791;BME280;6459;42.678;23.310;2022-08-16T01:19:49;54009.53;;;-144.00;65.38
12791;BME280;6459;42.678;23.310;2022-08-16T01:22:27;53995.56;;;-144.00;65.29
12791;BME280;6459;42.678;23.310;2022-08-16T01:25:19;53995.56;;;-144.00;65.08
12791;BME280;6459;42.678;23.310;2022-08-16T01:28:02;54001.56;;;-144.00;65.48
12791;BME280;6459;42.678;23.310;2022-08-16T01:30:36;54031.44;;;-144.00;65.43
12791;BME280;6459;42.678;23.310;2022-08-16T01:33:15;54033.44;;;-144.00;65.74
12791;BME280;6459;42.678;23.310;2022-08-16T01:35:48;54013.50;;;-144.00;65.59
12791;BME280;6459;42.678;23.310;2022-08-16T01:38:21;53993.59;;;-144.00;65.49
12791;BME280;6459;42.678;23.310;2022-08-16T01:40:57;54003.53;;;-144.00;65.93
12791;BME280;6459;42.678;23.310;2022-08-16T01:43:28;54009.53;;;-144.00;65.84
12791;BME280;6459;42.678;23.310;2022-08-16T01:45:58;53973.66;;;-144.00;65.62
12791;BME280;6459;42.678;23.310;2022-08-16T01:48:47;53969.69;;;-144.00;65.65
12791;BME280;6459;42.678;23.310;2022-08-16T01:51:17;54003.53;;;-144.00;65.46
12791;BME280;6459;42.678;23.310;2022-08-16T01:53:48;53993.59;;;-144.00;65.08
12791;BME280;6459;42.678;23.310;2022-08-16T01:56:24;53989.59;;;-144.00;64.74
12791;BME280;6459;42.678;23.310;2022-08-16T01:58:55;53983.63;;;-144.00;64.60
12791;BME280;6459;42.678;23.310;2022-08-16T02:01:24;54005.53;;;-144.00;64.31
12791;BME280;6459;42.678;23.310;2022-08-16T02:03:54;53969.69;;;-144.00;64.26
12791;BME280;6459;42.678;23.310;2022-08-16T02:06:36;53981.63;;;-144.00;64.35
12791;BME280;6459;42.678;23.310;2022-08-16T02:09:13;53985.63;;;-144.00;63.99
12791;BME280;6459;42.678;23.310;2022-08-16T02:11:48;54005.53;;;-144.00;63.20
12791;BME280;6459;42.678;23.310;2022-08-16T02:14:20;53951.75;;;-144.00;62.90
12791;BME280;6459;42.678;23.310;2022-08-16T02:16:52;53995.56;;;-144.00;62.91
12791;BME280;6459;42.678;23.310;2022-08-16T02:19:23;54015.50;;;-144.00;62.75
12791;BME280;6459;42.678;23.310;2022-08-16T02:22:16;54019.47;;;-144.00;62.65
12791;BME280;6459;42.678;23.310;2022-08-16T02:25:09;54031.44;;;-144.00;62.78
12791;BME280;6459;42.678;23.310;2022-08-16T02:27:44;54041.41;;;-144.00;63.25
12791;BME280;6459;42.678;23.310;2022-08-16T02:30:20;54013.50;;;-144.00;63.84
12791;BME280;6459;42.678;23.310;2022-08-16T02:33:09;53995.56;;;-144.00;63.99
12791;BME280;6459;42.678;23.310;2022-08-16T02:35:41;54017.50;;;-144.00;64.65
12791;BME280;6459;42.678;23.310;2022-08-16T02:38:21;54011.50;;;-144.00;64.99
12791;BME280;6459;42.678;23.310;2022-08-16T02:40:50;54033.44;;;-144.00;66.13
12791;BME280;6459;42.678;23.310;2022-08-16T02:43:21;54027.44;;;-144.00;69.88
12791;BME280;6459;42.678;23.310;2022-08-16T02:45:53;54053.34;;;-144.00;71.76
12791;BME280;6459;42.678;23.310;2022-08-16T02:48:22;54057.34;;;-144.00;72.93
12791;BME280;6459;42.678;23.310;2022-08-16T02:50:57;54083.25;;;-144.00;75.31
12791;BME280;6459;42.678;23.310;2022-08-16T02:53:41;54109.13;;;-144.00;75.51
12791;BME280;6459;42.678;23.310;2022-08-16T02:56:11;54101.16;;;-144.00;74.44
12791;BME280;6459;42.678;23.310;2022-08-16T02:58:43;54093.19;;;-144.00;73.66
12791;BME280;6459;42.678;23.310;2022-08-16T03:01:13;54067.31;;;-144.00;73.87
12791;BME280;6459;42.678;23.310;2022-08-16T03:04:01;54113.13;;;-144.00;74.23
12791;BME280;6459;42.678;23.310;2022-08-16T03:06:51;54069.28;;;-144.00;74.45
12791;BME280;6459;42.678;23.310;2022-08-16T03:09:23;54045.38;;;-144.00;75.61
12791;BME280;6459;42.678;23.310;2022-08-16T03:11:55;54111.13;;;-144.00;76.60
12791;BME280;6459;42.678;23.310;2022-08-16T03:14:28;54061.31;;;-144.00;76.84
12791;BME280;6459;42.678;23.310;2022-08-16T03:16:56;54105.16;;;-144.00;75.73
12791;BME280;6459;42.678;23.310;2022-08-16T03:19:28;54085.22;;;-144.00;74.88
12791;BME280;6459;42.678;23.310;2022-08-16T03:22:14;54029.44;;;-144.00;73.96
12791;BME280;6459;42.678;23.310;2022-08-16T03:24:45;54045.38;;;-144.00;72.70
12791;BME280;6459;42.678;23.310;2022-08-16T03:27:14;54045.38;;;-144.00;71.79
12791;BME280;6459;42.678;23.310;2022-08-16T03:29:46;54065.31;;;-144.00;71.61
12791;BME280;6459;42.678;23.310;2022-08-16T03:32:20;54023.47;;;-144.00;71.93
12791;BME280;6459;42.678;23.310;2022-08-16T03:34:51;54027.44;;;-144.00;71.45
12791;BME280;6459;42.678;23.310;2022-08-16T03:37:20;54061.31;;;-144.00;71.70
12791;BME280;6459;42.678;23.310;2022-08-16T03:39:48;54005.53;;;-144.00;72.64
12791;BME280;6459;42.678;23.310;2022-08-16T03:42:22;53993.59;;;-144.00;72.62
12791;BME280;6459;42.678;23.310;2022-08-16T03:44:53;54009.53;;;-144.00;73.06
12791;BME280;6459;42.678;23.310;2022-08-16T03:47:29;54001.56;;;-144.00;72.79
12791;BME280;6459;42.678;23.310;2022-08-16T03:50:00;54009.53;;;-144.00;72.31
12791;BME280;6459;42.678;23.310;2022-08-16T03:52:49;54013.50;;;-144.00;71.99
12791;BME280;6459;42.678;23.310;2022-08-16T03:55:26;54025.47;;;-144.00;72.30
12791;BME280;6459;42.678;23.310;2022-08-16T03:58:11;54025.47;;;-144.00;72.55
12791;BME280;6459;42.678;23.310;2022-08-16T04:00:41;54017.50;;;-144.00;72.12
12791;BME280;6459;42.678;23.310;2022-08-16T04:03:09;54023.47;;;-144.00;71.85
12791;BME280;6459;42.678;23.310;2022-08-16T04:05:40;54013.50;;;-144.00;72.04
12791;BME280;6459;42.678;23.310;2022-08-16T04:08:10;54013.50;;;-144.00;71.82
12791;BME280;6459;42.678;23.310;2022-08-16T04:10:51;54005.53;;;-144.00;72.40
12791;BME280;6459;42.678;23.310;2022-08-16T04:13:21;54001.56;;;-144.00;72.79
12791;BME280;6459;42.678;23.310;2022-08-16T04:16:13;54013.50;;;-144.00;73.61
12791;BME280;6459;42.678;23.310;2022-08-16T04:18:54;54033.44;;;-144.00;73.64
12791;BME280;6459;42.678;23.310;2022-08-16T04:21:30;54017.50;;;-144.00;73.58
12791;BME280;6459;42.678;23.310;2022-08-16T04:24:01;53983.63;;;-144.00;73.44
12791;BME280;6459;42.678;23.310;2022-08-16T04:26:33;54025.47;;;-144.00;72.78
12791;BME280;6459;42.678;23.310;2022-08-16T04:29:12;53965.69;;;-144.00;72.48
12791;BME280;6459;42.678;23.310;2022-08-16T04:31:53;53995.56;;;-144.00;72.39
12791;BME280;6459;42.678;23.310;2022-08-16T04:34:26;54015.50;;;-144.00;73.54
12791;BME280;6459;42.678;23.310;2022-08-16T04:36:54;54009.53;;;-144.00;72.55
12791;BME280;6459;42.678;23.310;2022-08-16T04:39:28;53979.63;;;-144.00;71.12
12791;BME280;6459;42.678;23.310;2022-08-16T04:42:13;53937.81;;;-144.00;67.25
12791;BME280;6459;42.678;23.310;2022-08-16T04:44:42;53933.81;;;-144.00;65.59
12791;BME280;6459;42.678;23.310;2022-08-16T04:47:24;53941.78;;;-144.00;65.67
12791;BME280;6459;42.678;23.310;2022-08-16T04:49:59;53969.69;;;-144.00;66.24
12791;BME280;6459;42.678;23.310;2022-08-16T04:52:27;53973.66;;;-144.00;67.12
12791;BME280;6459;42.678;23.310;2022-08-16T04:55:03;53937.81;;;-144.00;68.96
12791;BME280;6459;42.678;23.310;2022-08-16T04:57:33;53919.88;;;-144.00;65.49
12791;BME280;6459;42.678;23.310;2022-08-16T05:00:06;53856.13;;;-144.00;62.62
12791;BME280;6459;42.678;23.310;2022-08-16T05:02:56;53842.19;;;-144.00;59.84
12791;BME280;6459;42.678;23.310;2022-08-16T05:05:28;53730.63;;;-144.00;56.62
12791;BME280;6459;42.678;23.310;2022-08-16T05:08:02;53770.47;;;-144.00;54.33
12791;BME280;6459;42.678;23.310;2022-08-16T05:10:52;53758.50;;;-144.00;52.98
12791;BME280;6459;42.678;23.310;2022-08-16T05:13:26;53708.72;;;-144.00;51.76
12791;BME280;6459;42.678;23.310;2022-08-16T05:16:10;53722.66;;;-144.00;49.46
12791;BME280;6459;42.678;23.310;2022-08-16T05:18:50;53798.34;;;-144.00;51.33
12791;BME280;6459;42.678;23.310;2022-08-16T05:21:19;53864.09;;;-144.00;53.26
12791;BME280;6459;42.678;23.310;2022-08-16T05:23:50;53806.31;;;-144.00;54.91
12791;BME280;6459;42.678;23.310;2022-08-16T05:26:27;53844.16;;;-144.00;55.75
12791;BME280;6459;42.678;23.310;2022-08-16T05:28:56;53882.03;;;-144.00;56.42
12791;BME280;6459;42.678;23.310;2022-08-16T05:31:26;53891.97;;;-144.00;56.97
12791;BME280;6459;42.678;23.310;2022-08-16T05:33:59;53888.00;;;-144.00;58.40
12791;BME280;6459;42.678;23.310;2022-08-16T05:36:30;53854.13;;;-144.00;59.97
12791;BME280;6459;42.678;23.310;2022-08-16T05:39:05;53909.91;;;-144.00;61.35
12791;BME280;6459;42.678;23.310;2022-08-16T05:41:35;53927.84;;;-144.00;61.15
12791;BME280;6459;42.678;23.310;2022-08-16T05:44:12;53931.81;;;-144.00;61.38
12791;BME280;6459;42.678;23.310;2022-08-16T05:46:52;53937.81;;;-144.00;61.67
12791;BME280;6459;42.678;23.310;2022-08-16T05:49:23;53925.84;;;-144.00;62.56
12791;BME280;6459;42.678;23.310;2022-08-16T05:52:06;53913.91;;;-144.00;63.17
12791;BME280;6459;42.678;23.310;2022-08-16T05:54:39;53947.75;;;-144.00;63.80
12791;BME280;6459;42.678;23.310;2022-08-16T05:57:13;53909.91;;;-144.00;63.91
12791;BME280;6459;42.678;23.310;2022-08-16T05:59:42;53921.88;;;-144.00;63.95
12791;BME280;6459;42.678;23.310;2022-08-16T06:02:12;53929.84;;;-144.00;63.79
12791;BME280;6459;42.678;23.310;2022-08-16T06:04:45;53939.78;;;-144.00;63.31
12791;BME280;6459;42.678;23.310;2022-08-16T06:07:14;53923.84;;;-144.00;62.98
12791;BME280;6459;42.678;23.310;2022-08-16T06:09:53;53899.94;;;-144.00;63.18
12791;BME280;6459;42.678;23.310;2022-08-16T06:12:26;53933.81;;;-144.00;63.51
12791;BME280;6459;42.678;23.310;2022-08-16T06:14:55;53927.84;;;-144.00;64.01
12791;BME280;6459;42.678;23.310;2022-08-16T06:17:26;53911.91;;;-144.00;65.07
12791;BME280;6459;42.678;23.310;2022-08-16T06:20:14;53919.88;;;-144.00;63.87
12791;BME280;6459;42.678;23.310;2022-08-16T06:22:50;53937.81;;;-144.00;63.12
12791;BME280;6459;42.678;23.310;2022-08-16T06:25:37;53941.78;;;-144.00;62.77
12791;BME280;6459;42.678;23.310;2022-08-16T06:28:08;53893.97;;;-144.00;61.99
12791;BME280;6459;42.678;23.310;2022-08-16T06:30:57;53935.81;;;-144.00;63.60
12791;BME280;6459;42.678;23.310;2022-08-16T06:36:41;53913.91;;;-144.00;63.32
12791;BME280;6459;42.678;23.310;2022-08-16T06:39:25;53925.84;;;-144.00;63.11
12791;BME280;6459;42.678;23.310;2022-08-16T06:41:54;53917.88;;;-144.00;62.69
12791;BME280;6459;42.678;23.310;2022-08-16T06:44:24;53945.78;;;-144.00;62.83
12791;BME280;6459;42.678;23.310;2022-08-16T06:46:52;53897.97;;;-144.00;62.95
12791;BME280;6459;42.678;23.310;2022-08-16T06:49:21;53925.84;;;-144.00;62.60
12791;BME280;6459;42.678;23.310;2022-08-16T06:51:51;53905.94;;;-144.00;61.31
12791;BME280;6459;42.678;23.310;2022-08-16T06:54:28;53893.97;;;-144.00;60.77
12791;BME280;6459;42.678;23.310;2022-08-16T06:56:58;53909.91;;;-144.00;60.12
12791;BME280;6459;42.678;23.310;2022-08-16T06:59:27;53870.06;;;-144.00;60.14
12791;BME280;6459;42.678;23.310;2022-08-16T07:02:15;53890.00;;;-144.00;59.62
12791;BME280;6459;42.678;23.310;2022-08-16T07:04:59;53874.06;;;-144.00;59.82
12791;BME280;6459;42.678;23.310;2022-08-16T07:07:29;53874.06;;;-144.00;59.50
12791;BME280;6459;42.678;23.310;2022-08-16T07:10:03;53882.03;;;-144.00;59.16
12791;BME280;6459;42.678;23.310;2022-08-16T07:12:35;53868.06;;;-144.00;59.32
12791;BME280;6459;42.678;23.310;2022-08-16T07:15:23;53872.06;;;-144.00;59.19
12791;BME280;6459;42.678;23.310;2022-08-16T07:17:54;53882.03;;;-144.00;58.45
12791;BME280;6459;42.678;23.310;2022-08-16T07:20:23;53893.97;;;-144.00;58.49
12791;BME280;6459;42.678;23.310;2022-08-16T07:23:14;53882.03;;;-144.00;58.10
12791;BME280;6459;42.678;23.310;2022-08-16T07:25:43;53891.97;;;-144.00;57.87
12791;BME280;6459;42.678;23.310;2022-08-16T07:28:14;53868.06;;;-144.00;57.55
12791;BME280;6459;42.678;23.310;2022-08-16T07:30:50;53870.06;;;-144.00;57.16
12791;BME280;6459;42.678;23.310;2022-08-16T07:33:20;53854.13;;;-144.00;57.25
12791;BME280;6459;42.678;23.310;2022-08-16T07:36:09;53858.13;;;-144.00;57.24
12791;BME280;6459;42.678;23.310;2022-08-16T07:38:48;53834.22;;;-144.00;57.21
12791;BME280;6459;42.678;23.310;2022-08-16T07:41:18;53816.28;;;-144.00;57.33
12791;BME280;6459;42.678;23.310;2022-08-16T07:43:46;53826.25;;;-144.00;56.75
12791;BME280;6459;42.678;23.310;2022-08-16T07:46:16;53810.31;;;-144.00;56.01
12791;BME280;6459;42.678;23.310;2022-08-16T07:49:03;53838.19;;;-144.00;55.46
12791;BME280;6459;42.678;23.310;2022-08-16T07:51:37;53812.28;;;-144.00;55.30
12791;BME280;6459;42.678;23.310;2022-08-16T07:54:09;53806.31;;;-144.00;55.29
12791;BME280;6459;42.678;23.310;2022-08-16T07:56:47;53810.31;;;-144.00;55.83
12791;BME280;6459;42.678;23.310;2022-08-16T07:59:17;53794.38;;;-144.00;55.81
12791;BME280;6459;42.678;23.310;2022-08-16T08:01:46;53786.41;;;-144.00;55.73
12791;BME280;6459;42.678;23.310;2022-08-16T08:04:19;53800.34;;;-144.00;54.78
12791;BME280;6459;42.678;23.310;2022-08-16T08:06:47;53854.13;;;-144.00;54.85
12791;BME280;6459;42.678;23.310;2022-08-16T08:09:18;53796.34;;;-144.00;54.51
12791;BME280;6459;42.678;23.310;2022-08-16T08:11:53;53794.38;;;-144.00;54.16
12791;BME280;6459;42.678;23.310;2022-08-16T08:14:27;53776.44;;;-144.00;53.80
12791;BME280;6459;42.678;23.310;2022-08-16T08:16:57;53774.44;;;-144.00;53.71
12791;BME280;6459;42.678;23.310;2022-08-16T08:19:27;53762.50;;;-144.00;53.62
12791;BME280;6459;42.678;23.310;2022-08-16T08:21:59;53760.50;;;-144.00;52.90
12791;BME280;6459;42.678;23.310;2022-08-16T08:24:37;53786.41;;;-144.00;52.42
12791;BME280;6459;42.678;23.310;2022-08-16T08:27:09;53774.44;;;-144.00;51.57
12791;BME280;6459;42.678;23.310;2022-08-16T08:29:51;53764.47;;;-144.00;50.94
12791;BME280;6459;42.678;23.310;2022-08-16T08:32:55;53736.59;;;-144.00;49.76
12791;BME280;6459;42.678;23.310;2022-08-16T08:35:27;53756.50;;;-144.00;46.95
12791;BME280;6459;42.678;23.310;2022-08-16T08:37:55;53756.50;;;-144.00;46.05
12791;BME280;6459;42.678;23.310;2022-08-16T08:40:27;53722.66;;;-144.00;45.34
12791;BME280;6459;42.678;23.310;2022-08-16T08:43:01;53738.59;;;-144.00;44.83
12791;BME280;6459;42.678;23.310;2022-08-16T08:45:38;53740.56;;;-144.00;44.50
12791;BME280;6459;42.678;23.310;2022-08-16T08:48:19;53742.56;;;-144.00;44.43
12791;BME280;6459;42.678;23.310;2022-08-16T08:51:02;53706.72;;;-144.00;43.41
12791;BME280;6459;42.678;23.310;2022-08-16T08:53:32;53742.56;;;-144.00;43.60
12791;BME280;6459;42.678;23.310;2022-08-16T08:56:04;53752.53;;;-144.00;43.09
12791;BME280;6459;42.678;23.310;2022-08-16T08:58:50;53722.66;;;-144.00;42.87
12791;BME280;6459;42.678;23.310;2022-08-16T09:01:27;53730.63;;;-144.00;42.73
12791;BME280;6459;42.678;23.310;2022-08-16T09:04:03;53674.84;;;-144.00;42.94
12791;BME280;6459;42.678;23.310;2022-08-16T09:06:32;53696.75;;;-144.00;42.58
12791;BME280;6459;42.678;23.310;2022-08-16T09:09:01;53688.78;;;-144.00;42.25
12791;BME280;6459;42.678;23.310;2022-08-16T09:11:58;53694.75;;;-144.00;42.45
12791;BME280;6459;42.678;23.310;2022-08-16T09:14:33;53710.69;;;-144.00;42.19
12791;BME280;6459;42.678;23.310;2022-08-16T09:17:04;53710.69;;;-144.00;41.77
12791;BME280;6459;42.678;23.310;2022-08-16T09:19:49;53662.88;;;-144.00;41.50
12791;BME280;6459;42.678;23.310;2022-08-16T09:22:23;53690.78;;;-144.00;41.15
12791;BME280;6459;42.678;23.310;2022-08-16T09:24:53;53684.81;;;-144.00;41.01
12791;BME280;6459;42.678;23.310;2022-08-16T09:27:38;53660.91;;;-144.00;41.22
12791;BME280;6459;42.678;23.310;2022-08-16T09:30:26;53662.88;;;-144.00;41.75
12791;BME280;6459;42.678;23.310;2022-08-16T09:33:10;53654.91;;;-144.00;41.06
12791;BME280;6459;42.678;23.310;2022-08-16T09:35:43;53670.84;;;-144.00;40.15
12791;BME280;6459;42.678;23.310;2022-08-16T09:38:20;53682.81;;;-144.00;40.50
12791;BME280;6459;42.678;23.310;2022-08-16T09:40:58;53658.91;;;-144.00;40.79
12791;BME280;6459;42.678;23.310;2022-08-16T09:43:32;53656.91;;;-144.00;40.31
12791;BME280;6459;42.678;23.310;2022-08-16T09:46:23;53652.94;;;-144.00;40.50
12791;BME280;6459;42.678;23.310;2022-08-16T09:49:13;53623.03;;;-144.00;40.10
12791;BME280;6459;42.678;23.310;2022-08-16T09:51:46;53625.03;;;-144.00;39.82
12791;BME280;6459;42.678;23.310;2022-08-16T09:54:20;53642.97;;;-144.00;39.69
12791;BME280;6459;42.678;23.310;2022-08-16T09:56:49;53635.00;;;-144.00;39.13
12791;BME280;6459;42.678;23.310;2022-08-16T09:59:22;53664.88;;;-144.00;39.00
12791;BME280;6459;42.678;23.310;2022-08-16T10:01:56;53678.81;;;-144.00;40.10
12791;BME280;6459;42.678;23.310;2022-08-16T10:04:25;53642.97;;;-144.00;39.76
12791;BME280;6459;42.678;23.310;2022-08-16T10:07:02;53640.97;;;-144.00;40.05
12791;BME280;6459;42.678;23.310;2022-08-16T10:09:42;53629.03;;;-144.00;39.63
12791;BME280;6459;42.678;23.310;2022-08-16T10:12:23;53629.03;;;-144.00;39.00
12791;BME280;6459;42.678;23.310;2022-08-16T10:15:12;53599.16;;;-144.00;38.75
12791;BME280;6459;42.678;23.310;2022-08-16T10:17:44;53615.06;;;-144.00;38.68
12791;BME280;6459;42.678;23.310;2022-08-16T10:20:29;53623.03;;;-144.00;38.48
12791;BME280;6459;42.678;23.310;2022-08-16T10:23:00;53605.13;;;-144.00;37.65
12791;BME280;6459;42.678;23.310;2022-08-16T10:25:35;53605.13;;;-144.00;37.80
12791;BME280;6459;42.678;23.310;2022-08-16T10:28:24;53631.00;;;-144.00;37.99
12791;BME280;6459;42.678;23.310;2022-08-16T10:30:58;53635.00;;;-144.00;38.35
12791;BME280;6459;42.678;23.310;2022-08-16T10:33:30;53625.03;;;-144.00;38.31
12791;BME280;6459;42.678;23.310;2022-08-16T10:36:01;53646.94;;;-144.00;38.26
12791;BME280;6459;42.678;23.310;2022-08-16T10:38:37;53615.06;;;-144.00;38.30
12791;BME280;6459;42.678;23.310;2022-08-16T10:41:10;53629.03;;;-144.00;38.18
12791;BME280;6459;42.678;23.310;2022-08-16T10:43:42;53635.00;;;-144.00;38.41
12791;BME280;6459;42.678;23.310;2022-08-16T10:46:20;53625.03;;;-144.00;38.46
12791;BME280;6459;42.678;23.310;2022-08-16T10:49:07;53650.94;;;-144.00;40.13
12791;BME280;6459;42.678;23.310;2022-08-16T10:51:36;53656.91;;;-144.00;39.94
12791;BME280;6459;42.678;23.310;2022-08-16T10:54:25;53644.97;;;-144.00;40.23
12791;BME280;6459;42.678;23.310;2022-08-16T10:56:56;53670.84;;;-144.00;40.87
12791;BME280;6459;42.678;23.310;2022-08-16T10:59:26;53678.81;;;-144.00;40.32
12791;BME280;6459;42.678;23.310;2022-08-16T11:02:14;53638.97;;;-144.00;41.48
12791;BME280;6459;42.678;23.310;2022-08-16T11:05:04;53694.75;;;-144.00;40.50
12791;BME280;6459;42.678;23.310;2022-08-16T11:07:42;53728.63;;;-144.00;39.97
12791;BME280;6459;42.678;23.310;2022-08-16T11:10:22;53650.94;;;-144.00;38.90
12791;BME280;6459;42.678;23.310;2022-08-16T11:13:13;53638.97;;;-144.00;39.03
12791;BME280;6459;42.678;23.310;2022-08-16T11:16:04;53682.81;;;-144.00;38.57
12791;BME280;6459;42.678;23.310;2022-08-16T11:18:54;53646.94;;;-144.00;38.34
12791;BME280;6459;42.678;23.310;2022-08-16T11:21:38;53650.94;;;-144.00;38.15
12791;BME280;6459;42.678;23.310;2022-08-16T11:24:27;53623.03;;;-144.00;37.78
12791;BME280;6459;42.678;23.310;2022-08-16T11:27:08;53607.09;;;-144.00;37.53
12791;BME280;6459;42.678;23.310;2022-08-16T11:29:47;53611.09;;;-144.00;37.80
12791;BME280;6459;42.678;23.310;2022-08-16T11:32:18;53603.13;;;-144.00;37.87
12791;BME280;6459;42.678;23.310;2022-08-16T11:35:02;53625.03;;;-144.00;38.61
12791;BME280;6459;42.678;23.310;2022-08-16T11:37:41;53599.16;;;-144.00;38.94
12791;BME280;6459;42.678;23.310;2022-08-16T11:40:33;53623.03;;;-144.00;40.55
12791;BME280;6459;42.678;23.310;2022-08-16T11:43:05;53627.03;;;-144.00;42.02
12791;BME280;6459;42.678;23.310;2022-08-16T11:45:36;53656.91;;;-144.00;42.78
12791;BME280;6459;42.678;23.310;2022-08-16T11:48:08;53646.94;;;-144.00;44.97
12791;BME280;6459;42.678;23.310;2022-08-16T11:50:38;53712.69;;;-144.00;46.46
12791;BME280;6459;42.678;23.310;2022-08-16T11:53:07;53746.56;;;-144.00;46.00
12791;BME280;6459;42.678;23.310;2022-08-16T11:55:36;53768.47;;;-144.00;43.93
12791;BME280;6459;42.678;23.310;2022-08-16T11:58:10;53780.41;;;-144.00;44.83
12791;BME280;6459;42.678;23.310;2022-08-16T12:00:43;53746.56;;;-144.00;42.72
12791;BME280;6459;42.678;23.310;2022-08-16T12:03:19;53774.44;;;-144.00;42.54
12791;BME280;6459;42.678;23.310;2022-08-16T12:06:06;53762.50;;;-144.00;44.55
12791;BME280;6459;42.678;23.310;2022-08-16T12:08:55;53746.56;;;-144.00;45.76
12791;BME280;6459;42.678;23.310;2022-08-16T12:11:30;53774.44;;;-144.00;45.64
12791;BME280;6459;42.678;23.310;2022-08-16T12:13:59;53746.56;;;-144.00;44.71
12791;BME280;6459;42.678;23.310;2022-08-16T12:16:30;53748.53;;;-144.00;44.86
12791;BME280;6459;42.678;23.310;2022-08-16T12:19:00;53712.69;;;-144.00;45.74
12791;BME280;6459;42.678;23.310;2022-08-16T12:21:37;53724.66;;;-144.00;45.95
12791;BME280;6459;42.678;23.310;2022-08-16T12:24:24;53710.69;;;-144.00;46.23
12791;BME280;6459;42.678;23.310;2022-08-16T12:26:53;53710.69;;;-144.00;45.45
12791;BME280;6459;42.678;23.310;2022-08-16T12:29:22;53700.75;;;-144.00;45.25
12791;BME280;6459;42.678;23.310;2022-08-16T12:31:54;53690.78;;;-144.00;44.13
12791;BME280;6459;42.678;23.310;2022-08-16T12:34:49;53708.72;;;-144.00;44.36
12791;BME280;6459;42.678;23.310;2022-08-16T12:37:21;53698.75;;;-144.00;43.48
12791;BME280;6459;42.678;23.310;2022-08-16T12:39:54;53702.72;;;-144.00;41.64
12791;BME280;6459;42.678;23.310;2022-08-16T12:42:24;53686.78;;;-144.00;40.50
12791;BME280;6459;42.678;23.310;2022-08-16T12:45:02;53692.78;;;-144.00;40.27
12791;BME280;6459;42.678;23.310;2022-08-16T12:47:32;53658.91;;;-144.00;42.44
12791;BME280;6459;42.678;23.310;2022-08-16T12:50:35;53672.84;;;-144.00;43.66
12791;BME280;6459;42.678;23.310;2022-08-16T12:53:09;53658.91;;;-144.00;43.16
12791;BME280;6459;42.678;23.310;2022-08-16T12:55:38;53670.84;;;-144.00;48.04
12791;BME280;6459;42.678;23.310;2022-08-16T12:58:09;53668.88;;;-144.00;49.24
12791;BME280;6459;42.678;23.310;2022-08-16T13:00:58;53666.88;;;-144.00;44.11
12791;BME280;6459;42.678;23.310;2022-08-16T13:03:27;53670.84;;;-144.00;42.34
12791;BME280;6459;42.678;23.310;2022-08-16T13:06:08;53631.00;;;-144.00;41.46
12791;BME280;6459;42.678;23.310;2022-08-16T13:08:40;53668.88;;;-144.00;42.21
12791;BME280;6459;42.678;23.310;2022-08-16T13:11:12;53619.06;;;-144.00;42.17
12791;BME280;6459;42.678;23.310;2022-08-16T13:13:43;53652.94;;;-144.00;42.10
12791;BME280;6459;42.678;23.310;2022-08-16T13:16:20;53654.91;;;-144.00;41.15
12791;BME280;6459;42.678;23.310;2022-08-16T13:18:50;53650.94;;;-144.00;40.73
12791;BME280;6459;42.678;23.310;2022-08-16T13:21:20;53583.22;;;-144.00;40.95
12791;BME280;6459;42.678;23.310;2022-08-16T13:23:51;53603.13;;;-144.00;40.50
12791;BME280;6459;42.678;23.310;2022-08-16T13:26:22;53613.09;;;-144.00;39.55
12791;BME280;6459;42.678;23.310;2022-08-16T13:28:52;53603.13;;;-144.00;35.66